sensor_id;sensor_type;location;lat;lon;timestamp;P1;durP1;ratioP1;P2;durP2;ratioP2
65960;SDS011;53272;52.078;5.420;2022-07-23T00:00:04;5.60;;;2.50;;
65960;SDS011;53272;52.078;5.420;2022-07-23T00:02:30;4.47;;;2.72;;
65960;SDS011;53272;52.078;5.420;2022-07-23T00:04:57;4.93;;;2.70;;
65960;SDS011;53272;52.078;5.420;2022-07-23T00:07:23;7.10;;;2.90;;
65960;SDS011;53272;52.078;5.420;2022-07-23T00:09:50;8.88;;;2.92;;
65960;SDS011;53272;52.078;5.420;2022-07-23T00:12:16;7.05;;;2.80;;
65960;SDS011;53272;52.078;5.420;2022-07-23T00:14:42;4.78;;;3.20;;
65960;SDS011;53272;52.078;5.420;2022-07-23T00:17:08;6.55;;;3.00;;
65960;SDS011;53272;52.078;5.420;2022-07-23T00:19:35;5.47;;;3.03;;
65960;SDS011;53272;52.078;5.420;2022-07-23T00:22:01;4.97;;;3.08;;
65960;SDS011;53272;52.078;5.420;2022-07-23T00:24:28;7.43;;;3.45;;
65960;SDS011;53272;52.078;5.420;2022-07-23T00:26:55;6.40;;;2.72;;
65960;SDS011;53272;52.078;5.420;2022-07-23T00:29:21;8.35;;;2.58;;
65960;SDS011;53272;52.078;5.420;2022-07-23T00:31:47;6.57;;;2.90;;
65960;SDS011;53272;52.078;5.420;2022-07-23T00:34:13;7.57;;;3.40;;
65960;SDS011;53272;52.078;5.420;2022-07-23T00:36:40;11.27;;;3.10;;
65960;SDS011;53272;52.078;5.420;2022-07-23T00:39:07;5.50;;;2.97;;
65960;SDS011;53272;52.078;5.420;2022-07-23T00:41:33;6.68;;;2.80;;
65960;SDS011;53272;52.078;5.420;2022-07-23T00:46:46;8.50;;;3.42;;
65960;SDS011;53272;52.078;5.420;2022-07-23T00:49:12;8.52;;;3.35;;
65960;SDS011;53272;52.078;5.420;2022-07-23T00:51:39;7.63;;;3.45;;
65960;SDS011;53272;52.078;5.420;2022-07-23T00:54:05;6.43;;;3.25;;
65960;SDS011;53272;52.078;5.420;2022-07-23T00:56:32;7.00;;;3.50;;
65960;SDS011;53272;52.078;5.420;2022-07-23T00:59:00;5.53;;;3.13;;
65960;SDS011;53272;52.078;5.420;2022-07-23T01:01:27;5.10;;;3.08;;
65960;SDS011;53272;52.078;5.420;2022-07-23T01:03:53;8.02;;;3.15;;
65960;SDS011;53272;52.078;5.420;2022-07-23T01:06:20;6.47;;;3.65;;
65960;SDS011;53272;52.078;5.420;2022-07-23T01:08:46;6.15;;;3.35;;
65960;SDS011;53272;52.078;5.420;2022-07-23T01:11:12;6.88;;;3.85;;
65960;SDS011;53272;52.078;5.420;2022-07-23T01:13:42;4.60;;;3.25;;
65960;SDS011;53272;52.078;5.420;2022-07-23T01:16:09;5.60;;;3.30;;
65960;SDS011;53272;52.078;5.420;2022-07-23T01:18:36;7.63;;;3.10;;
65960;SDS011;53272;52.078;5.420;2022-07-23T01:21:03;4.88;;;3.10;;
65960;SDS011;53272;52.078;5.420;2022-07-23T01:23:29;7.30;;;3.28;;
65960;SDS011;53272;52.078;5.420;2022-07-23T01:25:56;9.38;;;3.17;;
65960;SDS011;53272;52.078;5.420;2022-07-23T01:28:22;6.55;;;3.30;;
65960;SDS011;53272;52.078;5.420;2022-07-23T01:30:48;8.07;;;3.25;;
65960;SDS011;53272;52.078;5.420;2022-07-23T01:33:15;7.80;;;3.20;;
65960;SDS011;53272;52.078;5.420;2022-07-23T01:35:41;4.93;;;3.05;;
65960;SDS011;53272;52.078;5.420;2022-07-23T01:38:08;4.68;;;3.08;;
65960;SDS011;53272;52.078;5.420;2022-07-23T01:40:34;4.78;;;3.08;;
65960;SDS011;53272;52.078;5.420;2022-07-23T01:43:00;5.88;;;3.35;;
65960;SDS011;53272;52.078;5.420;2022-07-23T01:45:26;5.43;;;3.65;;
65960;SDS011;53272;52.078;5.420;2022-07-23T01:47:53;5.63;;;3.05;;
65960;SDS011;53272;52.078;5.420;2022-07-23T01:50:19;11.73;;;3.15;;
65960;SDS011;53272;52.078;5.420;2022-07-23T01:52:46;8.48;;;3.25;;
65960;SDS011;53272;52.078;5.420;2022-07-23T01:55:12;6.05;;;3.38;;
65960;SDS011;53272;52.078;5.420;2022-07-23T01:57:44;18.70;;;4.32;;
65960;SDS011;53272;52.078;5.420;2022-07-23T02:00:10;5.88;;;3.35;;
65960;SDS011;53272;52.078;5.420;2022-07-23T02:02:37;7.82;;;4.10;;
65960;SDS011;53272;52.078;5.420;2022-07-23T02:05:04;7.32;;;3.80;;
65960;SDS011;53272;52.078;5.420;2022-07-23T02:07:31;8.13;;;3.63;;
65960;SDS011;53272;52.078;5.420;2022-07-23T02:10:00;6.13;;;3.47;;
65960;SDS011;53272;52.078;5.420;2022-07-23T02:12:26;5.10;;;3.20;;
65960;SDS011;53272;52.078;5.420;2022-07-23T02:14:53;5.80;;;3.47;;
65960;SDS011;53272;52.078;5.420;2022-07-23T02:17:19;8.00;;;3.30;;
65960;SDS011;53272;52.078;5.420;2022-07-23T02:19:45;12.70;;;3.53;;
65960;SDS011;53272;52.078;5.420;2022-07-23T02:22:12;10.60;;;3.80;;
65960;SDS011;53272;52.078;5.420;2022-07-23T02:24:38;11.43;;;4.00;;
65960;SDS011;53272;52.078;5.420;2022-07-23T02:27:04;6.38;;;3.80;;
65960;SDS011;53272;52.078;5.420;2022-07-23T02:29:31;7.32;;;3.75;;
65960;SDS011;53272;52.078;5.420;2022-07-23T02:31:57;7.93;;;3.28;;
65960;SDS011;53272;52.078;5.420;2022-07-23T02:34:24;5.45;;;3.13;;
65960;SDS011;53272;52.078;5.420;2022-07-23T02:36:50;6.63;;;3.55;;
65960;SDS011;53272;52.078;5.420;2022-07-23T02:39:17;6.35;;;3.25;;
65960;SDS011;53272;52.078;5.420;2022-07-23T02:41:43;5.78;;;3.70;;
65960;SDS011;53272;52.078;5.420;2022-07-23T02:44:09;6.50;;;3.33;;
65960;SDS011;53272;52.078;5.420;2022-07-23T02:46:35;6.97;;;3.42;;
65960;SDS011;53272;52.078;5.420;2022-07-23T02:49:02;9.75;;;3.95;;
65960;SDS011;53272;52.078;5.420;2022-07-23T02:51:31;7.60;;;3.60;;
65960;SDS011;53272;52.078;5.420;2022-07-23T02:53:58;6.13;;;3.45;;
65960;SDS011;53272;52.078;5.420;2022-07-23T02:56:24;6.10;;;3.30;;
65960;SDS011;53272;52.078;5.420;2022-07-23T02:58:51;6.75;;;3.15;;
65960;SDS011;53272;52.078;5.420;2022-07-23T03:01:17;6.65;;;3.50;;
65960;SDS011;53272;52.078;5.420;2022-07-23T03:03:46;10.38;;;3.17;;
65960;SDS011;53272;52.078;5.420;2022-07-23T03:06:12;11.45;;;3.63;;
65960;SDS011;53272;52.078;5.420;2022-07-23T03:08:39;8.48;;;3.70;;
65960;SDS011;53272;52.078;5.420;2022-07-23T03:11:05;8.43;;;4.20;;
65960;SDS011;53272;52.078;5.420;2022-07-23T03:13:37;6.53;;;3.88;;
65960;SDS011;53272;52.078;5.420;2022-07-23T03:16:04;5.25;;;3.70;;
65960;SDS011;53272;52.078;5.420;2022-07-23T03:18:31;6.18;;;3.95;;
65960;SDS011;53272;52.078;5.420;2022-07-23T03:21:05;10.35;;;4.20;;
65960;SDS011;53272;52.078;5.420;2022-07-23T03:23:31;7.07;;;4.07;;
65960;SDS011;53272;52.078;5.420;2022-07-23T03:25:58;6.40;;;4.00;;
65960;SDS011;53272;52.078;5.420;2022-07-23T03:28:24;6.55;;;3.88;;
65960;SDS011;53272;52.078;5.420;2022-07-23T03:30:50;12.88;;;4.07;;
65960;SDS011;53272;52.078;5.420;2022-07-23T03:33:17;5.18;;;3.13;;
65960;SDS011;53272;52.078;5.420;2022-07-23T03:35:44;5.55;;;3.33;;
65960;SDS011;53272;52.078;5.420;2022-07-23T03:38:13;13.45;;;3.45;;
65960;SDS011;53272;52.078;5.420;2022-07-23T03:40:39;5.80;;;3.67;;
65960;SDS011;53272;52.078;5.420;2022-07-23T03:43:05;6.18;;;3.05;;
65960;SDS011;53272;52.078;5.420;2022-07-23T03:45:32;6.07;;;3.13;;
65960;SDS011;53272;52.078;5.420;2022-07-23T03:47:58;8.27;;;3.30;;
65960;SDS011;53272;52.078;5.420;2022-07-23T03:50:25;4.85;;;3.05;;
65960;SDS011;53272;52.078;5.420;2022-07-23T03:52:51;4.28;;;2.67;;
65960;SDS011;53272;52.078;5.420;2022-07-23T03:55:18;5.47;;;3.60;;
65960;SDS011;53272;52.078;5.420;2022-07-23T03:57:44;6.47;;;3.50;;
65960;SDS011;53272;52.078;5.420;2022-07-23T04:00:10;7.82;;;4.00;;
65960;SDS011;53272;52.078;5.420;2022-07-23T04:02:37;6.03;;;3.53;;
65960;SDS011;53272;52.078;5.420;2022-07-23T04:05:04;7.97;;;3.78;;
65960;SDS011;53272;52.078;5.420;2022-07-23T19:24:32;8.98;;;4.95;;
65960;SDS011;53272;52.078;5.420;2022-07-23T19:26:59;9.63;;;5.38;;
65960;SDS011;53272;52.078;5.420;2022-07-23T19:29:31;8.57;;;5.10;;
65960;SDS011;53272;52.078;5.420;2022-07-23T19:32:02;8.38;;;5.22;;
65960;SDS011;53272;52.078;5.420;2022-07-23T19:34:28;10.45;;;4.18;;
65960;SDS011;53272;52.078;5.420;2022-07-23T19:36:55;7.40;;;3.90;;
65960;SDS011;53272;52.078;5.420;2022-07-23T19:39:23;7.30;;;3.60;;
65960;SDS011;53272;52.078;5.420;2022-07-23T19:41:50;8.80;;;3.75;;
65960;SDS011;53272;52.078;5.420;2022-07-23T19:44:16;10.98;;;3.90;;
65960;SDS011;53272;52.078;5.420;2022-07-23T19:46:43;11.73;;;4.47;;
65960;SDS011;53272;52.078;5.420;2022-07-23T19:49:09;10.07;;;4.88;;
65960;SDS011;53272;52.078;5.420;2022-07-23T19:51:36;14.10;;;4.80;;
65960;SDS011;53272;52.078;5.420;2022-07-23T19:54:02;13.00;;;5.10;;
65960;SDS011;53272;52.078;5.420;2022-07-23T19:56:28;11.38;;;5.13;;
65960;SDS011;53272;52.078;5.420;2022-07-23T19:58:56;9.15;;;4.90;;
65960;SDS011;53272;52.078;5.420;2022-07-23T20:01:23;13.23;;;5.30;;
65960;SDS011;53272;52.078;5.420;2022-07-23T20:03:50;9.85;;;5.32;;
65960;SDS011;53272;52.078;5.420;2022-07-23T20:06:16;10.23;;;4.80;;
65960;SDS011;53272;52.078;5.420;2022-07-23T20:08:42;13.05;;;5.20;;
65960;SDS011;53272;52.078;5.420;2022-07-23T20:11:09;10.38;;;5.13;;
65960;SDS011;53272;52.078;5.420;2022-07-23T20:13:35;9.60;;;5.25;;
65960;SDS011;53272;52.078;5.420;2022-07-23T20:16:01;8.52;;;5.82;;
65960;SDS011;53272;52.078;5.420;2022-07-23T20:18:28;8.75;;;5.30;;
65960;SDS011;53272;52.078;5.420;2022-07-23T20:20:55;9.45;;;5.15;;
65960;SDS011;53272;52.078;5.420;2022-07-23T20:23:22;13.68;;;5.05;;
65960;SDS011;53272;52.078;5.420;2022-07-23T20:25:49;11.40;;;5.40;;
65960;SDS011;53272;52.078;5.420;2022-07-23T20:28:15;8.98;;;5.25;;
65960;SDS011;53272;52.078;5.420;2022-07-23T20:30:42;9.60;;;5.70;;
65960;SDS011;53272;52.078;5.420;2022-07-23T20:33:14;12.07;;;5.55;;
65960;SDS011;53272;52.078;5.420;2022-07-23T20:35:41;10.25;;;6.10;;
65960;SDS011;53272;52.078;5.420;2022-07-23T20:38:08;19.48;;;5.97;;
65960;SDS011;53272;52.078;5.420;2022-07-23T20:40:34;14.52;;;6.38;;
65960;SDS011;53272;52.078;5.420;2022-07-23T20:43:01;12.40;;;6.43;;
65960;SDS011;53272;52.078;5.420;2022-07-23T20:45:27;9.43;;;6.47;;
65960;SDS011;53272;52.078;5.420;2022-07-23T20:47:54;18.73;;;5.95;;
65960;SDS011;53272;52.078;5.420;2022-07-23T20:50:20;13.90;;;6.75;;
65960;SDS011;53272;52.078;5.420;2022-07-23T20:52:46;13.60;;;6.63;;
65960;SDS011;53272;52.078;5.420;2022-07-23T20:55:13;10.65;;;5.63;;
65960;SDS011;53272;52.078;5.420;2022-07-23T20:57:40;10.32;;;6.20;;
65960;SDS011;53272;52.078;5.420;2022-07-23T21:00:07;9.05;;;5.95;;
65960;SDS011;53272;52.078;5.420;2022-07-23T21:02:34;16.75;;;6.03;;
65960;SDS011;53272;52.078;5.420;2022-07-23T21:05:01;13.45;;;6.10;;
65960;SDS011;53272;52.078;5.420;2022-07-23T21:07:27;9.57;;;6.00;;
65960;SDS011;53272;52.078;5.420;2022-07-23T21:09:54;11.02;;;6.30;;
65960;SDS011;53272;52.078;5.420;2022-07-23T21:12:21;10.88;;;5.93;;
65960;SDS011;53272;52.078;5.420;2022-07-23T21:14:48;13.48;;;6.30;;
65960;SDS011;53272;52.078;5.420;2022-07-23T21:17:15;15.13;;;5.70;;
65960;SDS011;53272;52.078;5.420;2022-07-23T21:19:41;15.85;;;6.43;;
65960;SDS011;53272;52.078;5.420;2022-07-23T21:22:08;10.73;;;6.00;;
65960;SDS011;53272;52.078;5.420;2022-07-23T21:24:35;8.88;;;6.20;;
65960;SDS011;53272;52.078;5.420;2022-07-23T21:27:02;13.27;;;5.57;;
65960;SDS011;53272;52.078;5.420;2022-07-23T21:32:00;10.77;;;5.97;;
65960;SDS011;53272;52.078;5.420;2022-07-23T21:34:26;12.45;;;6.25;;
65960;SDS011;53272;52.078;5.420;2022-07-23T21:36:52;10.50;;;5.80;;
65960;SDS011;53272;52.078;5.420;2022-07-23T21:39:19;7.30;;;5.53;;
65960;SDS011;53272;52.078;5.420;2022-07-23T21:41:45;9.35;;;5.68;;
65960;SDS011;53272;52.078;5.420;2022-07-23T21:44:12;11.23;;;6.43;;
65960;SDS011;53272;52.078;5.420;2022-07-23T21:46:39;13.23;;;6.00;;
65960;SDS011;53272;52.078;5.420;2022-07-23T21:49:05;10.13;;;6.38;;
65960;SDS011;53272;52.078;5.420;2022-07-23T21:51:32;10.88;;;6.50;;
65960;SDS011;53272;52.078;5.420;2022-07-23T21:53:58;10.90;;;6.45;;
65960;SDS011;53272;52.078;5.420;2022-07-23T21:56:25;9.68;;;6.72;;
65960;SDS011;53272;52.078;5.420;2022-07-23T21:58:52;11.85;;;7.03;;
65960;SDS011;53272;52.078;5.420;2022-07-23T22:01:18;12.68;;;7.43;;
65960;SDS011;53272;52.078;5.420;2022-07-23T22:03:45;16.85;;;6.97;;
65960;SDS011;53272;52.078;5.420;2022-07-23T22:06:11;10.52;;;7.50;;
65960;SDS011;53272;52.078;5.420;2022-07-23T22:08:38;45.58;;;27.67;;
65960;SDS011;53272;52.078;5.420;2022-07-23T22:11:04;40.55;;;26.98;;
65960;SDS011;53272;52.078;5.420;2022-07-23T22:13:30;35.78;;;23.02;;
65960;SDS011;53272;52.078;5.420;2022-07-23T22:15:57;22.77;;;16.40;;
65960;SDS011;53272;52.078;5.420;2022-07-23T22:18:23;32.28;;;15.20;;
65960;SDS011;53272;52.078;5.420;2022-07-23T22:20:50;14.98;;;9.57;;
65960;SDS011;53272;52.078;5.420;2022-07-23T22:23:17;22.25;;;8.60;;
65960;SDS011;53272;52.078;5.420;2022-07-23T22:25:43;23.88;;;7.95;;
65960;SDS011;53272;52.078;5.420;2022-07-23T22:28:10;8.88;;;6.70;;
65960;SDS011;53272;52.078;5.420;2022-07-23T22:30:36;16.70;;;7.53;;
65960;SDS011;53272;52.078;5.420;2022-07-23T22:33:03;14.20;;;7.50;;
65960;SDS011;53272;52.078;5.420;2022-07-23T22:35:29;19.40;;;7.75;;
65960;SDS011;53272;52.078;5.420;2022-07-23T22:37:56;12.13;;;7.07;;
65960;SDS011;53272;52.078;5.420;2022-07-23T22:40:22;10.70;;;6.60;;
65960;SDS011;53272;52.078;5.420;2022-07-23T22:42:49;16.63;;;6.90;;
65960;SDS011;53272;52.078;5.420;2022-07-23T22:45:15;12.35;;;7.50;;
65960;SDS011;53272;52.078;5.420;2022-07-23T22:47:42;35.40;;;7.60;;
65960;SDS011;53272;52.078;5.420;2022-07-23T22:50:10;12.30;;;7.60;;
65960;SDS011;53272;52.078;5.420;2022-07-23T22:52:37;14.35;;;8.18;;
65960;SDS011;53272;52.078;5.420;2022-07-23T22:55:04;33.13;;;8.82;;
65960;SDS011;53272;52.078;5.420;2022-07-23T22:57:31;14.77;;;8.20;;
65960;SDS011;53272;52.078;5.420;2022-07-23T22:59:57;14.45;;;9.45;;
65960;SDS011;53272;52.078;5.420;2022-07-23T23:02:23;15.30;;;8.38;;
65960;SDS011;53272;52.078;5.420;2022-07-23T23:04:50;11.68;;;8.20;;
65960;SDS011;53272;52.078;5.420;2022-07-23T23:07:16;11.55;;;7.90;;
65960;SDS011;53272;52.078;5.420;2022-07-23T23:09:42;10.85;;;7.47;;
65960;SDS011;53272;52.078;5.420;2022-07-23T23:12:09;19.15;;;8.27;;
65960;SDS011;53272;52.078;5.420;2022-07-23T23:14:35;12.20;;;8.32;;
65960;SDS011;53272;52.078;5.420;2022-07-23T23:17:01;14.38;;;8.15;;
65960;SDS011;53272;52.078;5.420;2022-07-23T23:19:28;15.23;;;8.73;;
65960;SDS011;53272;52.078;5.420;2022-07-23T23:21:54;14.73;;;9.40;;
65960;SDS011;53272;52.078;5.420;2022-07-23T23:24:20;24.55;;;9.75;;
65960;SDS011;53272;52.078;5.420;2022-07-23T23:26:47;12.75;;;8.02;;
65960;SDS011;53272;52.078;5.420;2022-07-23T23:29:13;17.50;;;7.40;;
65960;SDS011;53272;52.078;5.420;2022-07-23T23:31:39;9.05;;;7.10;;
65960;SDS011;53272;52.078;5.420;2022-07-23T23:34:06;12.20;;;7.32;;
65960;SDS011;53272;52.078;5.420;2022-07-23T23:36:32;11.02;;;6.78;;
65960;SDS011;53272;52.078;5.420;2022-07-23T23:38:58;11.90;;;7.38;;
65960;SDS011;53272;52.078;5.420;2022-07-23T23:41:25;11.60;;;6.70;;
65960;SDS011;53272;52.078;5.420;2022-07-23T23:43:52;13.25;;;6.70;;
65960;SDS011;53272;52.078;5.420;2022-07-23T23:46:19;10.48;;;6.90;;
65960;SDS011;53272;52.078;5.420;2022-07-23T23:48:45;9.38;;;6.88;;
65960;SDS011;53272;52.078;5.420;2022-07-23T23:51:12;13.35;;;7.35;;
65960;SDS011;53272;52.078;5.420;2022-07-23T23:53:38;10.88;;;6.88;;
65960;SDS011;53272;52.078;5.420;2022-07-23T23:56:04;10.23;;;6.95;;
65960;SDS011;53272;52.078;5.420;2022-07-23T23:58:31;9.40;;;6.75;;
